Travelers Rest, South Carolina
Current Conditions -  °F | °C
As of 6:53 AM on Saturday 25 Oct 2014 (Local Time) from KGMU Reporting Station
Clear Clear  
Wind Chill: 55°   Ceiling: Unl
Heat Index: 55°   Visibility: 10mi
Dew Point: 38°   Wind: 5mph
Humidity: 53%   Direction: 340°NNW
Pressure: 30.04"   Gusts: NA
Location:  34.97°N, 82.44°W
Report Text: KGMU 251053Z 34004KT 10SM CLR 13/03 A3004 RMK AO2 SLP169 T01280033
Loading
Personal Weather Stations






























Interactive Weather Map
Tropical Storm Tracking
New forecast layout! Learn more

10-Day Weather Forecast

Advertisements
Track Severe Weather on mobile